Time;durP1;ratioP1;P1;durP2;ratioP2;P2;SDS_P1;SDS_P2;PMS_P1;PMS_P2;Temp;Humidity;BMP_temperature;BMP_pressure;BME280_temperature;BME280_humidity;BME280_pressure;Samples;Min_cycle;Max_cycle;Signal;HPM_P1;HPM_P2
2021/09/09 00:01:18;;;;;;;15.13;13.43;;;17.10;99.90;;;;;;5034333;28;20588;-68
2021/09/09 00:03:43;;;;;;;16.90;14.03;;;17.10;99.90;;;;;;5033877;28;20220;-68
2021/09/09 00:06:09;;;;;;;17.33;14.90;;;17.00;99.90;;;;;;5033917;28;20261;-69
2021/09/09 00:08:35;;;;;;;14.87;13.33;;;17.00;99.90;;;;;;5033824;28;20168;-68
2021/09/09 00:11:00;;;;;;;15.50;13.67;;;17.00;99.90;;;;;;5034012;28;20175;-67
2021/09/09 00:13:25;;;;;;;14.70;13.20;;;17.00;99.90;;;;;;5033977;28;20185;-68
2021/09/09 00:15:51;;;;;;;17.73;14.20;;;17.00;99.90;;;;;;5033807;28;20317;-68
2021/09/09 00:18:16;;;;;;;16.77;13.10;;;17.00;99.90;;;;;;5033579;28;20177;-67
2021/09/09 00:20:42;;;;;;;17.87;15.07;;;16.90;99.90;;;;;;5034135;28;20180;-68
2021/09/09 00:23:08;;;;;;;15.40;13.90;;;16.90;99.90;;;;;;5033484;28;20190;-69
2021/09/09 00:25:33;;;;;;;18.70;14.30;;;16.90;99.90;;;;;;5033490;28;20296;-69
2021/09/09 00:27:59;;;;;;;15.40;13.53;;;16.90;99.90;;;;;;5033753;28;20173;-68
2021/09/09 00:30:24;;;;;;;15.00;13.50;;;16.90;99.90;;;;;;5034305;28;20170;-68
2021/09/09 00:32:50;;;;;;;14.00;12.60;;;16.80;99.90;;;;;;5033670;28;20177;-69
2021/09/09 00:35:15;;;;;;;15.27;13.70;;;16.70;99.90;;;;;;5033599;28;20251;-68
2021/09/09 00:37:41;;;;;;;18.40;13.40;;;16.70;99.90;;;;;;5033705;28;20207;-68
2021/09/09 00:40:08;;;;;;;16.97;14.13;;;16.70;99.90;;;;;;5033307;28;20653;-68
2021/09/09 00:42:33;;;;;;;14.90;13.50;;;16.70;99.90;;;;;;5033358;28;20736;-68
2021/09/09 00:44:59;;;;;;;14.90;13.50;;;16.70;99.90;;;;;;5031703;28;20454;-68
2021/09/09 00:47:25;;;;;;;14.83;13.10;;;16.60;99.90;;;;;;5033106;28;20711;-68
2021/09/09 00:49:51;;;;;;;18.37;13.60;;;16.70;99.90;;;;;;5033399;28;20169;-68
2021/09/09 00:52:16;;;;;;;17.50;13.07;;;16.60;99.90;;;;;;5033353;28;20459;-69
2021/09/09 00:54:44;;;;;;;16.03;13.50;;;16.60;99.90;;;;;;5032925;28;20225;-67
2021/09/09 00:57:10;;;;;;;14.63;13.20;;;16.60;99.90;;;;;;5033015;28;20262;-68
2021/09/09 00:59:36;;;;;;;16.00;14.40;;;16.50;99.90;;;;;;5033031;28;20409;-68
2021/09/09 01:02:03;;;;;;;14.27;12.70;;;16.50;99.90;;;;;;5032835;28;20587;-67
2021/09/09 01:04:29;;;;;;;13.37;12.00;;;16.50;99.90;;;;;;5014907;28;20697;-68
2021/09/09 01:06:56;;;;;;;14.60;13.10;;;16.40;99.90;;;;;;5032874;28;20522;-68
2021/09/09 01:09:23;;;;;;;14.63;13.13;;;16.50;99.90;;;;;;5032825;28;20411;-68
2021/09/09 01:11:49;;;;;;;16.53;13.93;;;16.40;99.90;;;;;;5030563;28;20423;-67
2021/09/09 01:14:16;;;;;;;15.17;13.37;;;16.40;99.90;;;;;;5032766;28;20424;-68
2021/09/09 01:16:43;;;;;;;14.87;13.37;;;16.40;99.90;;;;;;5031162;28;20212;-70
2021/09/09 01:19:10;;;;;;;15.33;13.03;;;16.40;99.90;;;;;;5032654;28;20434;-68
2021/09/09 01:21:36;;;;;;;14.93;12.97;;;16.40;99.90;;;;;;5032560;28;20442;-69
2021/09/09 01:24:12;;;;;;;16.30;14.60;;;16.40;99.90;;;;;;5032586;28;20747;-68
2021/09/09 01:27:03;;;;;;;14.20;12.53;;;16.30;99.90;;;;;;5032713;28;20453;-69
2021/09/09 01:29:35;;;;;;;19.50;15.53;;;16.30;99.90;;;;;;5032560;28;20479;-67
2021/09/09 01:32:01;;;;;;;13.97;12.57;;;16.30;99.90;;;;;;5032268;28;20430;-68
2021/09/09 01:34:27;;;;;;;15.63;13.43;;;16.30;99.90;;;;;;5032262;28;20896;-67
2021/09/09 01:36:54;;;;;;;15.10;13.27;;;16.40;99.90;;;;;;5032200;28;20478;-68
2021/09/09 01:39:20;;;;;;;15.03;13.23;;;16.30;99.90;;;;;;5032634;28;20416;-68
2021/09/09 01:41:49;;;;;;;18.97;13.50;;;16.30;99.90;;;;;;5032190;28;20411;-68
2021/09/09 01:44:15;;;;;;;16.53;13.00;;;16.30;99.90;;;;;;5032125;28;20515;-69
2021/09/09 01:46:40;;;;;;;14.37;12.87;;;16.20;99.90;;;;;;5032099;28;20539;-69
2021/09/09 01:49:06;;;;;;;15.57;12.80;;;16.20;99.90;;;;;;5032159;28;20165;-67
2021/09/09 01:51:31;;;;;;;15.07;13.20;;;16.20;99.90;;;;;;5032116;28;20166;-68
2021/09/09 01:53:57;;;;;;;14.50;13.00;;;16.20;99.90;;;;;;5032022;28;20667;-68
2021/09/09 01:56:22;;;;;;;16.13;12.00;;;16.20;99.90;;;;;;5030403;28;20260;-69
2021/09/09 01:58:48;;;;;;;14.37;12.50;;;16.10;99.90;;;;;;5032041;28;20514;-67
2021/09/09 02:01:15;;;;;;;15.07;13.27;;;16.10;99.90;;;;;;5032151;28;20169;-68
2021/09/09 02:03:40;;;;;;;14.97;13.37;;;16.10;99.90;;;;;;5031831;28;20199;-69
2021/09/09 02:06:06;;;;;;;12.90;11.60;;;16.00;99.90;;;;;;5031705;28;20446;-68
2021/09/09 02:08:31;;;;;;;15.67;12.93;;;16.10;99.90;;;;;;5031893;28;20164;-68
2021/09/09 02:10:57;;;;;;;13.07;11.27;;;16.00;99.90;;;;;;5031939;28;20222;-69
2021/09/09 02:13:22;;;;;;;18.87;13.87;;;16.00;99.90;;;;;;5031852;28;20267;-68
2021/09/09 02:15:48;;;;;;;17.63;14.40;;;16.00;99.90;;;;;;5031870;28;20178;-68
2021/09/09 02:18:13;;;;;;;13.27;11.93;;;16.00;99.90;;;;;;5031450;28;20233;-68
2021/09/09 02:20:39;;;;;;;13.77;12.37;;;16.00;99.90;;;;;;5032102;28;20179;-69
2021/09/09 02:23:04;;;;;;;13.50;11.33;;;16.00;99.90;;;;;;5031678;28;20228;-69
2021/09/09 02:25:30;;;;;;;14.17;12.77;;;16.00;99.90;;;;;;5031384;28;20287;-69
2021/09/09 02:27:56;;;;;;;13.93;12.50;;;16.00;99.90;;;;;;5031769;28;20180;-69
2021/09/09 02:30:22;;;;;;;14.27;12.77;;;16.00;99.90;;;;;;5030320;28;20177;-70
2021/09/09 02:32:48;;;;;;;13.83;12.43;;;15.90;99.90;;;;;;5031199;28;20264;-69
2021/09/09 02:35:13;;;;;;;17.97;13.80;;;15.90;99.90;;;;;;5031292;28;20502;-69
2021/09/09 02:37:40;;;;;;;13.73;12.33;;;15.90;99.90;;;;;;5031628;28;20691;-69
2021/09/09 02:40:07;;;;;;;14.07;12.17;;;15.90;99.90;;;;;;5031584;28;20174;-69
2021/09/09 02:42:33;;;;;;;18.33;13.10;;;15.80;99.90;;;;;;5031228;28;20418;-69
2021/09/09 02:44:58;;;;;;;13.63;12.20;;;15.80;99.90;;;;;;5030845;28;20632;-69
2021/09/09 02:47:23;;;;;;;15.90;13.33;;;15.80;99.90;;;;;;5031119;28;20169;-69
2021/09/09 02:49:49;;;;;;;15.43;12.47;;;15.70;99.90;;;;;;5031031;28;20171;-69
2021/09/09 02:52:14;;;;;;;15.17;12.07;;;15.80;99.90;;;;;;5031232;28;20168;-70
2021/09/09 02:54:40;;;;;;;13.40;11.97;;;15.70;99.90;;;;;;5030704;28;20247;-70
2021/09/09 02:57:05;;;;;;;13.47;12.20;;;15.70;99.90;;;;;;5031273;28;20176;-69
2021/09/09 02:59:31;;;;;;;19.27;13.33;;;15.60;99.90;;;;;;5031023;28;20183;-69
2021/09/09 03:01:56;;;;;;;13.70;11.67;;;15.60;99.90;;;;;;5031103;28;20287;-69
2021/09/09 03:04:22;;;;;;;13.33;11.93;;;15.60;99.90;;;;;;5030626;28;20253;-69
2021/09/09 03:06:47;;;;;;;13.53;12.23;;;15.60;99.90;;;;;;5031351;28;20699;-69
2021/09/09 03:09:13;;;;;;;17.60;13.60;;;15.50;99.90;;;;;;5035282;28;20164;-68
2021/09/09 03:11:38;;;;;;;15.70;12.00;;;15.50;99.90;;;;;;5035103;28;20206;-70
2021/09/09 03:14:04;;;;;;;12.57;11.37;;;15.50;99.90;;;;;;5034789;28;20187;-70
2021/09/09 03:16:29;;;;;;;14.87;11.47;;;15.50;99.90;;;;;;5034755;28;20180;-69
2021/09/09 03:18:55;;;;;;;13.67;11.80;;;15.50;99.90;;;;;;5034809;28;20169;-70
2021/09/09 03:21:20;;;;;;;13.50;12.07;;;15.50;99.90;;;;;;5034779;28;20175;-69
2021/09/09 03:23:46;;;;;;;12.80;11.50;;;15.40;99.90;;;;;;5035000;28;20200;-70
2021/09/09 03:26:11;;;;;;;16.40;12.10;;;15.40;99.90;;;;;;5033921;28;20646;-71
2021/09/09 03:28:37;;;;;;;15.30;11.87;;;15.40;99.90;;;;;;5034761;28;20178;-68
2021/09/09 03:31:02;;;;;;;15.43;12.67;;;15.30;99.90;;;;;;5034665;28;20168;-68
2021/09/09 03:33:28;;;;;;;13.47;12.07;;;15.30;99.90;;;;;;5034559;28;20191;-70
2021/09/09 03:35:53;;;;;;;13.17;11.80;;;15.30;99.90;;;;;;5034625;28;20279;-68
2021/09/09 03:38:19;;;;;;;14.30;12.80;;;15.20;99.90;;;;;;5034427;28;20233;-68
2021/09/09 03:40:44;;;;;;;14.27;12.87;;;15.20;99.90;;;;;;5034614;28;20178;-70
2021/09/09 03:43:10;;;;;;;14.80;12.30;;;15.20;99.90;;;;;;5034543;28;20257;-70
2021/09/09 03:45:36;;;;;;;14.20;12.77;;;15.20;99.90;;;;;;5034625;28;20681;-70
2021/09/09 03:48:01;;;;;;;13.57;12.13;;;15.20;99.90;;;;;;5034825;28;20179;-70
2021/09/09 03:50:27;;;;;;;14.73;12.30;;;15.20;99.90;;;;;;5033447;28;20406;-70
2021/09/09 03:52:52;;;;;;;14.83;12.87;;;15.10;99.90;;;;;;5034407;28;20191;-69
2021/09/09 03:55:18;;;;;;;21.57;14.20;;;15.10;99.90;;;;;;5034093;28;20192;-69
2021/09/09 03:57:43;;;;;;;16.73;13.20;;;15.10;99.90;;;;;;5034236;28;20208;-70
2021/09/09 04:00:09;;;;;;;13.80;12.40;;;15.10;99.90;;;;;;5034297;28;20203;-70
2021/09/09 04:02:35;;;;;;;17.13;13.13;;;15.00;99.90;;;;;;5033824;28;20207;-69
2021/09/09 04:05:02;;;;;;;14.47;13.03;;;15.00;99.90;;;;;;5033714;28;20442;-70
2021/09/09 04:07:27;;;;;;;18.27;12.43;;;15.00;99.90;;;;;;5034046;28;20228;-69
2021/09/09 04:09:53;;;;;;;16.77;12.40;;;15.00;99.90;;;;;;5034145;28;20410;-69
2021/09/09 04:12:18;;;;;;;15.83;14.23;;;14.90;99.90;;;;;;5033946;28;20406;-70
2021/09/09 04:14:44;;;;;;;14.93;12.60;;;14.90;99.90;;;;;;5033740;28;20589;-69
2021/09/09 04:17:09;;;;;;;13.90;12.50;;;14.90;99.90;;;;;;5033650;28;20254;-70
2021/09/09 04:19:35;;;;;;;14.03;12.57;;;14.80;99.90;;;;;;5033667;28;20171;-70
2021/09/09 04:22:06;;;;;;;15.50;13.83;;;14.80;99.90;;;;;;5033911;28;20628;-68
2021/09/09 04:24:31;;;;;;;14.73;13.23;;;14.80;99.90;;;;;;5033670;28;20210;-68
2021/09/09 04:26:57;;;;;;;14.23;12.70;;;14.80;99.90;;;;;;5033766;28;20550;-69
2021/09/09 04:29:22;;;;;;;16.93;13.60;;;14.80;99.90;;;;;;5034334;28;20180;-69
2021/09/09 04:31:48;;;;;;;15.93;12.77;;;14.80;99.90;;;;;;5033653;28;20179;-69
2021/09/09 04:34:13;;;;;;;16.27;13.40;;;14.80;99.90;;;;;;5033334;28;20671;-69
2021/09/09 04:36:39;;;;;;;19.90;13.73;;;14.70;99.90;;;;;;5033890;28;20240;-70
2021/09/09 04:39:04;;;;;;;16.50;13.83;;;14.80;99.90;;;;;;5032477;28;20244;-69
2021/09/09 04:41:29;;;;;;;16.00;12.77;;;14.80;99.90;;;;;;5033671;28;20179;-69
2021/09/09 04:43:55;;;;;;;15.30;13.70;;;14.80;99.90;;;;;;5033827;28;20200;-69
2021/09/09 04:46:20;;;;;;;14.10;12.60;;;14.80;99.90;;;;;;5033179;28;20203;-69
2021/09/09 04:48:46;;;;;;;16.57;12.07;;;14.80;99.90;;;;;;5033073;28;20256;-69
2021/09/09 04:51:11;;;;;;;14.40;12.90;;;14.90;99.90;;;;;;5033228;28;20176;-69
2021/09/09 04:53:37;;;;;;;14.03;11.40;;;14.90;99.90;;;;;;5033046;28;20195;-69
2021/09/09 04:56:03;;;;;;;14.30;12.83;;;14.80;99.90;;;;;;5032994;28;20321;-69
2021/09/09 04:58:28;;;;;;;14.83;12.40;;;14.80;99.90;;;;;;5032896;28;20302;-69
2021/09/09 05:00:54;;;;;;;16.30;12.40;;;14.90;99.90;;;;;;5033013;28;20493;-69
2021/09/09 05:03:20;;;;;;;16.97;14.57;;;14.90;99.90;;;;;;5032908;28;20190;-69
2021/09/09 05:05:45;;;;;;;13.10;11.80;;;14.90;99.90;;;;;;5032894;28;20460;-69
2021/09/09 05:08:11;;;;;;;15.40;12.97;;;15.00;99.90;;;;;;5031549;28;20240;-69
2021/09/09 05:10:37;;;;;;;13.57;11.77;;;14.90;99.90;;;;;;5032916;28;20667;-69
2021/09/09 05:13:02;;;;;;;16.53;13.30;;;15.00;99.90;;;;;;5032662;28;20202;-69
2021/09/09 05:15:28;;;;;;;15.80;13.40;;;14.90;99.90;;;;;;5032498;28;20178;-69
2021/09/09 05:17:53;;;;;;;13.80;12.40;;;15.00;99.90;;;;;;5032678;28;20200;-69
2021/09/09 05:20:20;;;;;;;12.33;11.13;;;15.00;99.90;;;;;;5032589;28;20241;-69
2021/09/09 05:22:46;;;;;;;14.23;12.73;;;15.10;99.90;;;;;;5032736;28;20168;-70
2021/09/09 05:25:12;;;;;;;14.20;12.73;;;15.10;99.90;;;;;;5032403;28;20471;-69
2021/09/09 05:27:37;;;;;;;12.87;11.53;;;15.20;99.90;;;;;;5032443;28;20849;-69
2021/09/09 05:30:03;;;;;;;14.70;13.13;;;15.20;99.90;;;;;;5031614;28;20184;-70
2021/09/09 05:32:28;;;;;;;15.30;11.80;;;15.30;99.90;;;;;;5032482;28;20199;-69
2021/09/09 05:34:54;;;;;;;17.97;13.17;;;15.30;99.90;;;;;;5032061;28;20537;-70
2021/09/09 05:37:19;;;;;;;16.87;12.43;;;15.40;99.90;;;;;;5032895;28;20168;-69
2021/09/09 05:39:45;;;;;;;12.33;11.10;;;15.50;99.90;;;;;;5032475;28;20599;-70
2021/09/09 05:42:10;;;;;;;12.80;11.47;;;15.60;99.90;;;;;;5032200;28;20210;-70
2021/09/09 05:44:36;;;;;;;11.53;10.43;;;15.70;99.90;;;;;;5032591;28;20275;-70
2021/09/09 05:47:01;;;;;;;15.30;11.77;;;16.00;99.90;;;;;;5030894;28;20225;-70
2021/09/09 05:49:27;;;;;;;15.27;10.93;;;16.60;99.90;;;;;;5032244;28;20248;-68
2021/09/09 05:51:52;;;;;;;17.60;11.10;;;17.20;99.90;;;;;;5031999;28;20172;-68
2021/09/09 05:54:18;;;;;;;13.30;10.00;;;17.60;99.90;;;;;;5030584;28;20202;-69
2021/09/09 05:56:43;;;;;;;10.80;9.73;;;18.40;99.90;;;;;;5032631;28;20176;-68
2021/09/09 05:59:10;;;;;;;11.60;9.43;;;18.70;99.90;;;;;;5032067;28;20329;-69
2021/09/09 06:01:36;;;;;;;13.87;10.60;;;19.00;99.90;;;;;;5032199;28;20184;-69
2021/09/09 06:04:03;;;;;;;11.87;9.23;;;19.70;99.90;;;;;;5031937;28;20449;-69
2021/09/09 06:06:29;;;;;;;11.40;8.80;;;19.30;99.90;;;;;;5031932;28;20586;-69
2021/09/09 06:08:55;;;;;;;10.40;9.30;;;19.00;99.90;;;;;;5031888;28;20408;-68
2021/09/09 06:11:20;;;;;;;12.60;8.90;;;19.40;99.90;;;;;;5031781;28;20434;-68
2021/09/09 06:13:46;;;;;;;9.60;8.70;;;19.30;99.90;;;;;;5031962;28;20455;-69
2021/09/09 06:16:11;;;;;;;11.20;9.60;;;20.20;99.90;;;;;;5031619;28;20261;-69
2021/09/09 06:18:37;;;;;;;11.77;8.73;;;20.10;99.90;;;;;;5032082;28;20581;-69
2021/09/09 06:21:02;;;;;;;9.17;8.27;;;20.80;99.90;;;;;;5031752;28;20256;-70
2021/09/09 06:23:29;;;;;;;9.60;8.60;;;21.50;99.90;;;;;;5031852;28;20194;-69
2021/09/09 06:25:54;;;;;;;9.00;8.10;;;22.20;99.90;;;;;;5031412;28;20229;-69
2021/09/09 06:28:20;;;;;;;10.20;8.80;;;21.20;99.90;;;;;;5031442;28;20435;-69
2021/09/09 06:30:45;;;;;;;12.07;8.80;;;21.50;99.90;;;;;;5031695;28;20206;-69
2021/09/09 06:33:11;;;;;;;10.03;9.03;;;21.50;99.90;;;;;;5031581;28;20282;-69
2021/09/09 06:35:37;;;;;;;9.87;8.57;;;21.50;99.90;;;;;;5031527;28;20171;-69
2021/09/09 06:38:02;;;;;;;10.13;8.63;;;21.10;99.90;;;;;;5031281;28;20501;-68
2021/09/09 06:40:28;;;;;;;10.60;7.80;;;21.80;99.90;;;;;;5031193;28;20417;-69
2021/09/09 06:42:53;;;;;;;10.60;9.40;;;22.30;99.90;;;;;;5030963;28;20218;-69
2021/09/09 06:45:19;;;;;;;9.90;8.90;;;22.00;99.90;;;;;;5030940;28;20683;-69
2021/09/09 06:47:45;;;;;;;9.60;8.60;;;22.60;99.90;;;;;;5030984;28;20173;-69
2021/09/09 06:50:10;;;;;;;9.90;7.80;;;21.70;99.90;;;;;;5031229;28;20254;-69
2021/09/09 06:52:36;;;;;;;12.00;9.73;;;21.20;99.90;;;;;;5031148;28;20536;-68
2021/09/09 06:55:01;;;;;;;9.37;8.20;;;21.80;99.90;;;;;;5030583;28;20247;-69
2021/09/09 07:00:19;;;;;;;8.40;7.57;;;23.50;99.90;;;;;;5025692;28;20221;-69
2021/09/09 07:02:44;;;;;;;9.67;7.50;;;24.10;99.90;;;;;;5031046;28;20403;-69
2021/09/09 07:05:11;;;;;;;8.50;7.70;;;23.80;99.90;;;;;;5030864;28;20590;-68
2021/09/09 07:07:38;;;;;;;13.67;7.60;;;24.60;99.90;;;;;;5030956;28;20654;-69
2021/09/09 07:10:03;;;;;;;10.40;7.17;;;24.60;99.90;;;;;;5030652;28;20497;-69
2021/09/09 07:12:29;;;;;;;8.13;7.40;;;23.70;99.90;;;;;;5031088;28;20553;-67
2021/09/09 07:14:54;;;;;;;7.50;6.70;;;24.00;99.90;;;;;;5030567;28;20191;-69
2021/09/09 07:17:20;;;;;;;9.77;8.07;;;24.60;99.90;;;;;;5030888;28;20175;-70
2021/09/09 07:19:45;;;;;;;9.83;7.93;;;25.10;99.90;;;;;;5030511;28;20195;-69
2021/09/09 07:22:11;;;;;;;9.50;7.17;;;24.40;99.90;;;;;;5030821;28;20626;-69
2021/09/09 07:24:36;;;;;;;10.53;7.00;;;24.00;99.90;;;;;;5030285;28;20609;-70
2021/09/09 07:27:02;;;;;;;8.90;7.03;;;24.50;99.80;;;;;;5030720;28;20195;-69
2021/09/09 07:29:27;;;;;;;7.87;7.07;;;25.50;98.00;;;;;;5030771;28;20171;-69
2021/09/09 07:31:53;;;;;;;7.13;6.27;;;24.50;99.40;;;;;;5030812;28;20175;-69
2021/09/09 07:34:18;;;;;;;8.23;7.53;;;23.90;99.90;;;;;;5030667;28;20245;-70
2021/09/09 07:36:44;;;;;;;10.93;8.50;;;23.40;99.90;;;;;;5030582;28;20263;-70
2021/09/09 07:39:09;;;;;;;14.67;7.40;;;23.90;99.90;;;;;;5031171;28;20661;-69
2021/09/09 07:41:35;;;;;;;8.57;7.70;;;23.90;99.90;;;;;;5030702;28;20599;-69
2021/09/09 07:44:01;;;;;;;7.10;6.40;;;25.10;98.50;;;;;;5030670;28;20188;-69
2021/09/09 07:46:30;;;;;;;7.40;6.70;;;24.40;99.60;;;;;;5030244;28;20277;-69
2021/09/09 07:48:56;;;;;;;7.20;6.50;;;24.10;99.90;;;;;;5029986;28;20242;-69
2021/09/09 07:51:22;;;;;;;12.83;7.87;;;24.50;99.00;;;;;;5030302;28;20413;-69
2021/09/09 07:53:49;;;;;;;8.27;6.70;;;24.30;99.30;;;;;;5032328;28;20754;-69
2021/09/09 07:56:15;;;;;;;6.93;6.17;;;25.50;97.60;;;;;;5034463;28;20504;-69
2021/09/09 07:58:43;;;;;;;7.37;5.90;;;25.40;97.70;;;;;;5034262;28;20489;-70
2021/09/09 08:01:08;;;;;;;7.20;5.97;;;25.10;98.80;;;;;;5034276;28;20160;-70
2021/09/09 08:03:34;;;;;;;8.33;6.80;;;24.90;98.30;;;;;;5034163;28;20417;-70
2021/09/09 08:05:59;;;;;;;6.83;6.13;;;25.80;95.60;;;;;;5034132;28;20214;-70
2021/09/09 08:08:24;;;;;;;6.70;6.07;;;25.50;96.70;;;;;;5033914;28;20164;-70
2021/09/09 08:10:50;;;;;;;7.67;6.20;;;24.80;99.00;;;;;;5034430;28;20164;-68
2021/09/09 08:13:15;;;;;;;6.87;6.27;;;24.90;97.60;;;;;;5033941;28;20610;-68
2021/09/09 08:15:41;;;;;;;8.63;6.00;;;24.30;97.50;;;;;;5033956;28;20167;-70
2021/09/09 08:18:07;;;;;;;7.87;7.07;;;25.20;97.00;;;;;;5033879;28;20254;-69
2021/09/09 08:20:33;;;;;;;8.40;5.93;;;25.70;97.00;;;;;;5033882;28;20199;-68
2021/09/09 08:22:58;;;;;;;9.67;6.00;;;25.70;96.50;;;;;;5033639;28;20426;-68
2021/09/09 08:25:24;;;;;;;6.43;5.73;;;25.20;95.90;;;;;;5033629;28;20512;-68
2021/09/09 08:27:50;;;;;;;6.20;5.60;;;25.00;97.00;;;;;;5033605;28;20164;-70
2021/09/09 08:30:15;;;;;;;6.90;5.87;;;24.70;96.60;;;;;;5033790;28;20862;-69
2021/09/09 08:32:42;;;;;;;6.67;5.80;;;24.10;98.10;;;;;;5033642;28;20171;-69
2021/09/09 08:35:09;;;;;;;7.60;5.23;;;23.80;98.20;;;;;;5034073;28;20178;-69
2021/09/09 08:37:34;;;;;;;7.03;6.20;;;24.70;98.20;;;;;;5033271;28;20421;-70
2021/09/09 08:40:00;;;;;;;10.17;5.60;;;25.70;96.10;;;;;;5033525;28;20436;-70
2021/09/09 08:42:26;;;;;;;6.20;5.47;;;26.50;94.60;;;;;;5033494;28;20191;-70
2021/09/09 08:44:51;;;;;;;7.40;5.57;;;25.40;96.10;;;;;;5033365;28;20657;-68
2021/09/09 08:47:17;;;;;;;7.23;6.13;;;24.80;96.70;;;;;;5033270;28;20192;-68
2021/09/09 08:49:43;;;;;;;8.63;6.27;;;25.60;95.30;;;;;;5033453;28;20168;-68
2021/09/09 08:52:11;;;;;;;6.50;5.90;;;27.00;93.40;;;;;;5033191;28;20164;-68
2021/09/09 08:54:36;;;;;;;5.80;5.20;;;27.50;92.30;;;;;;5033084;28;20274;-68
2021/09/09 08:57:02;;;;;;;6.00;5.40;;;26.70;92.40;;;;;;5033531;28;20530;-68
2021/09/09 08:59:27;;;;;;;6.10;5.50;;;26.30;93.90;;;;;;5033295;28;20614;-68
2021/09/09 09:02:05;;;;;;;7.10;6.00;;;25.50;95.40;;;;;;5033177;28;20174;-68
2021/09/09 09:04:32;;;;;;;5.40;4.90;;;25.90;93.30;;;;;;5031867;28;20666;-68
2021/09/09 09:06:59;;;;;;;9.80;6.77;;;26.10;93.90;;;;;;5032921;28;20609;-68
2021/09/09 09:09:28;;;;;;;7.47;5.97;;;26.80;93.30;;;;;;5033058;28;20406;-68
2021/09/09 09:11:53;;;;;;;8.60;5.53;;;27.00;91.70;;;;;;5032828;28;20767;-68
2021/09/09 09:14:25;;;;;;;5.97;5.40;;;26.30;92.90;;;;;;5033219;28;20445;-68
2021/09/09 09:16:57;;;;;;;9.90;5.63;;;27.40;91.30;;;;;;5032886;28;20176;-69
2021/09/09 09:19:25;;;;;;;6.13;5.40;;;27.00;91.10;;;;;;5033209;28;20464;-69
2021/09/09 09:22:02;;;;;;;6.10;5.50;;;27.20;90.50;;;;;;5033067;28;20831;-69
2021/09/09 09:24:34;;;;;;;6.00;5.40;;;26.90;92.20;;;;;;5032982;28;20424;-68
2021/09/09 09:27:09;;;;;;;8.00;5.30;;;26.70;92.00;;;;;;5032791;28;20458;-69
2021/09/09 09:29:36;;;;;;;5.70;5.07;;;25.40;93.20;;;;;;5032504;28;20406;-69
2021/09/09 09:32:16;;;;;;;8.17;5.80;;;26.50;92.10;;;;;;5032761;28;20438;-69
2021/09/09 09:34:43;;;;;;;6.37;5.77;;;27.20;91.20;;;;;;5032674;28;20418;-68
2021/09/09 09:37:09;;;;;;;7.40;6.70;;;26.90;91.90;;;;;;5032606;28;20460;-69
2021/09/09 09:39:35;;;;;;;8.93;5.47;;;26.70;90.60;;;;;;5032628;28;20408;-68
2021/09/09 09:42:05;;;;;;;8.40;5.20;;;26.70;90.40;;;;;;5014731;28;20433;-69
2021/09/09 09:44:35;;;;;;;7.60;5.80;;;26.40;91.10;;;;;;5032727;28;20229;-69
2021/09/09 09:47:10;;;;;;;6.40;5.50;;;26.10;91.80;;;;;;5032447;28;20465;-68
2021/09/09 09:49:37;;;;;;;6.23;5.63;;;26.10;92.60;;;;;;5032453;28;20505;-68
2021/09/09 09:52:03;;;;;;;6.77;5.60;;;25.90;92.40;;;;;;5032099;28;20468;-68
2021/09/09 09:54:29;;;;;;;11.63;6.30;;;26.10;92.50;;;;;;5031901;28;20457;-68
2021/09/09 09:56:56;;;;;;;7.20;5.57;;;25.60;92.50;;;;;;5032105;28;20418;-68
2021/09/09 09:59:23;;;;;;;7.37;6.67;;;25.60;92.60;;;;;;5032148;28;20177;-68
2021/09/09 10:01:49;;;;;;;7.87;6.63;;;25.40;93.30;;;;;;5032240;28;20414;-68
2021/09/09 10:04:17;;;;;;;6.73;5.80;;;25.10;92.70;;;;;;5031908;28;20436;-68
2021/09/09 10:06:44;;;;;;;9.37;5.83;;;24.80;93.80;;;;;;5031879;28;20475;-68
2021/09/09 10:09:11;;;;;;;7.27;6.53;;;24.80;93.80;;;;;;5031917;28;20413;-68
2021/09/09 10:11:36;;;;;;;7.37;6.67;;;24.80;94.00;;;;;;5032080;28;20904;-68
2021/09/09 10:14:04;;;;;;;6.33;5.60;;;24.40;94.00;;;;;;5031991;28;20423;-69
2021/09/09 10:16:35;;;;;;;6.37;5.77;;;24.60;94.20;;;;;;5031706;28;20168;-68
2021/09/09 10:19:00;;;;;;;5.83;5.33;;;24.60;94.30;;;;;;5031877;28;20395;-68
2021/09/09 10:21:39;;;;;;;6.27;5.70;;;24.70;94.50;;;;;;5032111;28;20419;-68
2021/09/09 10:24:18;;;;;;;8.70;5.73;;;24.50;94.60;;;;;;5031798;28;20192;-68
2021/09/09 10:26:46;;;;;;;7.40;5.53;;;24.80;94.40;;;;;;5031617;28;20449;-68
2021/09/09 10:29:49;;;;;;;7.00;5.53;;;24.90;94.00;;;;;;5031799;28;20406;-68
2021/09/09 10:32:29;;;;;;;6.10;5.53;;;24.80;94.30;;;;;;4981157;28;20495;-68
2021/09/09 10:35:22;;;;;;;6.73;5.30;;;24.70;95.20;;;;;;5031491;28;20480;-68
2021/09/09 10:37:53;;;;;;;9.80;6.83;;;24.70;94.40;;;;;;5031519;28;20503;-68
2021/09/09 10:40:28;;;;;;;7.20;6.50;;;24.30;95.00;;;;;;5031479;28;20430;-68
2021/09/09 10:42:55;;;;;;;11.47;5.67;;;24.20;95.50;;;;;;5031505;28;20425;-68
2021/09/09 10:45:36;;;;;;;6.63;5.17;;;24.60;95.10;;;;;;5031392;28;20953;-69
2021/09/09 10:48:03;;;;;;;7.77;5.90;;;24.70;94.70;;;;;;5031534;28;20436;-68
2021/09/09 10:50:28;;;;;;;6.93;6.30;;;24.70;95.10;;;;;;5013587;28;20416;-68
2021/09/09 10:53:32;;;;;;;7.50;6.40;;;24.50;96.70;;;;;;5031135;28;20498;-68
2021/09/09 10:56:16;;;;;;;9.23;6.73;;;24.90;96.20;;;;;;5031270;28;20478;-67
2021/09/09 10:58:43;;;;;;;7.87;5.50;;;24.80;95.50;;;;;;5031101;28;20417;-68
2021/09/09 11:01:09;;;;;;;6.53;5.40;;;25.00;95.10;;;;;;5031165;28;20445;-68
2021/09/09 11:03:48;;;;;;;8.00;6.03;;;24.80;94.30;;;;;;5031177;28;20522;-68
2021/09/09 11:06:19;;;;;;;6.97;6.27;;;25.00;94.70;;;;;;5031119;28;20883;-68
2021/09/09 11:08:47;;;;;;;6.20;5.60;;;25.00;94.90;;;;;;5031183;28;20400;-68
2021/09/09 11:11:15;;;;;;;6.63;5.87;;;25.10;95.90;;;;;;5031042;28;20414;-68
2021/09/09 11:13:41;;;;;;;6.97;6.23;;;25.20;95.30;;;;;;5030907;28;20422;-68
2021/09/09 11:16:23;;;;;;;6.40;5.90;;;25.20;94.80;;;;;;5030929;28;20548;-67
2021/09/09 11:18:49;;;;;;;6.20;5.30;;;25.00;94.00;;;;;;5030804;28;20171;-68
2021/09/09 11:21:36;;;;;;;11.87;5.53;;;24.90;94.20;;;;;;5030820;28;20406;-67
2021/09/09 11:24:06;;;;;;;9.40;6.10;;;25.20;94.70;;;;;;5030885;28;20428;-68
2021/09/09 11:26:33;;;;;;;8.00;5.63;;;25.30;94.30;;;;;;5030847;28;20472;-67
2021/09/09 11:29:00;;;;;;;7.43;6.23;;;25.40;94.40;;;;;;5015544;28;20503;-68
2021/09/09 11:31:42;;;;;;;6.83;6.23;;;25.30;94.60;;;;;;5034985;28;20402;-68
2021/09/09 11:34:08;;;;;;;6.70;5.87;;;25.20;93.80;;;;;;5034898;28;20432;-68
2021/09/09 11:36:34;;;;;;;6.73;5.70;;;25.10;93.90;;;;;;5034726;28;20418;-67
2021/09/09 11:39:02;;;;;;;8.00;5.97;;;25.10;94.20;;;;;;5034696;28;20291;-68
2021/09/09 11:41:30;;;;;;;7.77;7.00;;;25.20;94.90;;;;;;5034567;28;20415;-68
2021/09/09 11:44:04;;;;;;;6.97;5.43;;;25.30;94.40;;;;;;5016896;28;20434;-68
2021/09/09 11:46:35;;;;;;;7.10;5.73;;;25.40;94.00;;;;;;5034695;28;20860;-68
2021/09/09 11:49:06;;;;;;;7.50;5.70;;;25.50;94.30;;;;;;5034593;28;20470;-69
2021/09/09 11:51:40;;;;;;;7.87;6.30;;;25.40;94.40;;;;;;5034792;28;20397;-69
2021/09/09 11:54:09;;;;;;;6.17;5.67;;;25.80;94.00;;;;;;5034555;28;20472;-69
2021/09/09 11:56:37;;;;;;;6.53;5.23;;;25.70;94.90;;;;;;5034877;28;20410;-68
2021/09/09 11:59:08;;;;;;;8.33;6.03;;;25.70;94.60;;;;;;5034495;28;20842;-68
2021/09/09 12:01:37;;;;;;;6.47;5.87;;;25.80;94.70;;;;;;5034279;28;20409;-69
2021/09/09 12:04:04;;;;;;;6.33;5.13;;;25.80;94.30;;;;;;5034112;28;20586;-68
2021/09/09 12:06:32;;;;;;;7.13;6.47;;;25.70;94.50;;;;;;5034198;28;20451;-68
2021/09/09 12:08:58;;;;;;;5.73;5.23;;;25.60;94.30;;;;;;5034131;28;20457;-68
2021/09/09 12:11:24;;;;;;;5.93;4.70;;;25.70;94.20;;;;;;5034162;28;20823;-68
2021/09/09 12:13:50;;;;;;;8.90;5.60;;;25.90;93.90;;;;;;5034195;28;20430;-68
2021/09/09 12:16:17;;;;;;;6.73;6.13;;;25.70;94.50;;;;;;5034005;28;20182;-68
2021/09/09 12:19:03;;;;;;;5.67;5.17;;;25.80;94.80;;;;;;5016177;28;20410;-68
2021/09/09 12:21:29;;;;;;;10.63;5.37;;;25.80;95.00;;;;;;5034042;28;20495;-69
2021/09/09 12:24:04;;;;;;;7.00;5.70;;;25.80;94.50;;;;;;5034010;28;20431;-68
2021/09/09 12:26:30;;;;;;;7.33;6.70;;;26.10;94.30;;;;;;5033963;28;20453;-68
2021/09/09 12:28:56;;;;;;;6.20;5.60;;;26.10;93.70;;;;;;5033598;28;20411;-68
2021/09/09 12:31:33;;;;;;;5.27;4.70;;;26.10;93.90;;;;;;5033612;28;20752;-68
2021/09/09 12:33:59;;;;;;;8.97;5.80;;;26.10;93.90;;;;;;5033645;28;20231;-68
2021/09/09 12:36:37;;;;;;;6.40;5.90;;;26.20;94.00;;;;;;5033690;28;20454;-68
2021/09/09 12:39:02;;;;;;;6.00;5.43;;;26.20;93.70;;;;;;5033370;28;20171;-68